Hayes Center, NE

5:30 PM CST on December 18, 2014 (GMT -0600)
North Platte Regional-Bird | Change Station
CLOSE
Current Station
Airport
Location: North Platte,
Elevation: 2776 ft
Nearby Weather Stations

Elev 2776 ft 41.12 °N, 100.67 °W | Updated 37 minutes ago

Mostly Cloudy
Mostly Cloudy
28 °F
Feels Like 20 °F
N
8
Wind Variable Wind from SW

Today
High -- | Low -- °F
--% Chance of Precip.
Yesterday
High -- | Low -- °F
Precip. -- in
8:02 AM 5:19 PM
Waning Crescent, 11% visible
Pressure 30.18 in
Visibility 5.0 miles
Clouds Overcast 700 ft
Windchill 20 °F
Dew Point 25 °F
Humidity 88%
Rainfall 0.00 in
Snow Depth Not available.
UV 0 out of 12
Pollen .10 out of 12
Air Quality Not available.
Flu Activity Not available.
METAR KLBF 182253Z AUTO 23007KT 5SM BR OVC007 M02/M04 A3008 RMK AO2 SLP218 T10221039

More Conditions Fewer Conditions

Pressure 30.18 in
Visibility 5.0 miles
Clouds Overcast 700 ft
Windchill 20 °F
Dew Point 25 °F
Humidity 88%
Rainfall 0.00 in
Snow Depth Not available.
UV 0 out of 12
Pollen .10 out of 12
Air Quality Not available.
Flu Activity Not available.
METAR KLBF 182253Z AUTO 23007KT 5SM BR OVC007 M02/M04 A3008 RMK AO2 SLP218 T10221039

More Conditions Fewer Conditions

10-Day Weather Forecast

Almanac

Astronomy

Dec. 18, 2014 Rise Set
Actual Time
Civil Twilight
Nautical Twilight
Astronomical Twilight
Moon
Length of Visible Light
Length of Day
Tomorrow will be .
, % of the Moon is Illuminated

Today's Extremes

State Highs State Lows

Community

WunderPhotos

Upload Photos

1,779,013 photos uploaded!

WunderBlogs® & News

Nearby

Air Quality

  Air Quality AQ Index Pollutant
Not available.

Snow Depth

Station Depth Elevation

Earthquake Activity

City Distance Mag. Time & Date
Minimum magnitude displayed is 2.5.

Coastal Water Temperatures

Place Temperature

Nearby Weather Stations